createdAt,value
2023-03-17T00:00:47.309Z,85.43
2023-03-17T00:03:30.348Z,90.77
2023-03-17T00:06:00.500Z,88.30
2023-03-17T00:08:34.563Z,84.40
2023-03-17T00:11:02.776Z,76.53
2023-03-17T00:13:33.839Z,89.43
2023-03-17T00:16:07.600Z,92.85
2023-03-17T00:18:35.599Z,81.87
2023-03-17T00:21:03.201Z,87.03
2023-03-17T00:23:30.670Z,80.50
2023-03-17T00:25:58.207Z,80.20
2023-03-17T00:28:28.118Z,91.83
2023-03-17T00:31:01.076Z,86.40
2023-03-17T00:33:33.384Z,85.63
2023-03-17T00:36:01.788Z,71.43
2023-03-17T00:38:29.812Z,76.93
2023-03-17T00:40:57.312Z,66.27
2023-03-17T00:43:24.772Z,68.63
2023-03-17T00:45:52.398Z,60.97
2023-03-17T00:48:21.887Z,56.83
2023-03-17T00:50:51.049Z,78.97
2023-03-17T00:53:21.750Z,65.97
2023-03-17T00:55:50.103Z,58.47
2023-03-17T00:58:33.561Z,57.90
2023-03-17T01:01:02.370Z,60.30
2023-03-17T01:03:29.869Z,65.30
2023-03-17T01:05:57.973Z,64.73
2023-03-17T01:08:26.331Z,72.33
2023-03-17T01:10:54.719Z,77.13
2023-03-17T01:13:22.260Z,83.35
2023-03-17T01:15:51.380Z,84.40
2023-03-17T01:18:22.890Z,65.00
2023-03-17T01:20:51.896Z,71.97
2023-03-17T01:23:19.270Z,84.68
2023-03-17T01:25:46.867Z,78.95
2023-03-17T01:28:18.087Z,73.17
2023-03-17T01:30:47.086Z,81.80
2023-03-17T01:33:15.191Z,63.13
2023-03-17T01:35:45.946Z,65.68
2023-03-17T01:38:14.225Z,61.73
2023-03-17T01:40:50.645Z,70.05
2023-03-17T01:43:30.903Z,80.60
2023-03-17T01:46:31.194Z,69.77
2023-03-17T01:49:37.591Z,61.73
2023-03-17T01:52:21.975Z,66.23
2023-03-17T01:54:58.992Z,65.43
2023-03-17T01:57:56.573Z,66.72
2023-03-17T02:00:26.631Z,60.45
2023-03-17T02:02:57.137Z,64.23
2023-03-17T02:05:31.663Z,64.45
2023-03-17T02:08:00.260Z,67.07
2023-03-17T02:10:30.198Z,68.25
2023-03-17T02:13:05.710Z,61.17
2023-03-17T02:15:46.596Z,59.35
2023-03-17T02:18:15.100Z,60.07
2023-03-17T02:21:10.561Z,55.08
2023-03-17T02:23:38.102Z,59.17
2023-03-17T02:26:05.420Z,64.40
2023-03-17T02:28:34.437Z,59.87
2023-03-17T02:31:01.829Z,60.70
2023-03-17T02:33:29.362Z,57.00
2023-03-17T02:35:57.225Z,57.37
2023-03-17T02:38:24.834Z,57.20
2023-03-17T02:40:52.676Z,57.10
2023-03-17T02:43:20.782Z,55.03
2023-03-17T02:45:48.113Z,55.20
2023-03-17T02:48:16.106Z,51.47
2023-03-17T02:50:43.597Z,63.23
2023-03-17T02:53:11.309Z,49.30
2023-03-17T02:55:38.676Z,59.67
2023-03-17T02:58:06.281Z,50.53
2023-03-17T03:00:34.060Z,51.23
2023-03-17T03:03:01.629Z,59.20
2023-03-17T03:05:28.967Z,53.17
2023-03-17T03:07:56.593Z,53.65
2023-03-17T03:10:23.903Z,51.33
2023-03-17T03:12:52.166Z,54.13
2023-03-17T03:15:20.993Z,44.07
2023-03-17T03:17:48.659Z,49.57
2023-03-17T03:20:16.359Z,47.90
2023-03-17T03:22:43.965Z,43.13
2023-03-17T03:25:11.304Z,51.57
2023-03-17T03:27:38.837Z,53.47
2023-03-17T03:30:08.350Z,43.93
2023-03-17T03:32:35.911Z,58.13
2023-03-17T03:35:04.456Z,60.27
2023-03-17T03:37:32.068Z,60.27
2023-03-17T03:39:59.324Z,58.67
2023-03-17T03:42:26.918Z,52.40
2023-03-17T03:44:54.361Z,52.50
2023-03-17T03:47:21.990Z,54.72
2023-03-17T03:49:49.292Z,50.30
2023-03-17T03:52:16.884Z,49.53
2023-03-17T03:54:44.257Z,53.67
2023-03-17T03:57:12.059Z,56.03
2023-03-17T03:59:39.484Z,44.88
2023-03-17T04:02:09.536Z,59.37
2023-03-17T04:04:37.209Z,53.00
2023-03-17T04:07:04.942Z,47.17
2023-03-17T04:09:32.157Z,50.33
2023-03-17T04:11:59.987Z,46.67
2023-03-17T04:14:28.604Z,48.03
2023-03-17T04:16:56.361Z,42.83
2023-03-17T04:19:23.599Z,45.07
2023-03-17T04:21:53.579Z,47.23
2023-03-17T04:24:21.884Z,49.73
2023-03-17T04:26:49.450Z,43.37
2023-03-17T04:29:17.046Z,49.73
2023-03-17T04:31:44.747Z,55.60
2023-03-17T04:34:18.772Z,46.40
2023-03-17T04:36:48.378Z,45.67
2023-03-17T04:39:16.773Z,41.77
2023-03-17T04:41:44.321Z,42.10
2023-03-17T04:44:11.681Z,42.30
2023-03-17T04:46:39.401Z,38.10
2023-03-17T04:49:07.073Z,43.17
2023-03-17T04:51:36.880Z,36.37
2023-03-17T04:54:04.819Z,38.53
2023-03-17T04:56:32.705Z,43.97
2023-03-17T04:59:00.208Z,45.03
2023-03-17T05:01:27.921Z,42.70
2023-03-17T05:03:55.332Z,45.37
2023-03-17T05:06:23.079Z,41.20
2023-03-17T05:08:50.586Z,44.35
2023-03-17T05:11:18.471Z,41.37
2023-03-17T05:13:46.113Z,40.43
2023-03-17T05:16:13.969Z,42.80
2023-03-17T05:18:42.061Z,43.00
2023-03-17T05:21:10.689Z,42.57
2023-03-17T05:23:38.489Z,42.10
2023-03-17T05:26:06.722Z,40.67
2023-03-17T05:28:34.600Z,40.88
2023-03-17T05:31:02.663Z,38.27
2023-03-17T05:33:30.088Z,43.20
2023-03-17T05:35:57.681Z,52.20
2023-03-17T05:38:25.257Z,37.53
2023-03-17T05:40:52.996Z,39.07
2023-03-17T05:43:21.060Z,43.67
2023-03-17T05:45:50.703Z,39.20
2023-03-17T05:48:18.135Z,36.10
2023-03-17T05:50:46.043Z,37.43
2023-03-17T05:53:13.392Z,34.27
2023-03-17T05:55:41.558Z,38.90
2023-03-17T05:58:09.638Z,40.60
2023-03-17T06:00:37.909Z,34.20
2023-03-17T06:03:05.686Z,35.80
2023-03-17T06:05:33.875Z,40.03
2023-03-17T06:08:02.102Z,35.77
2023-03-17T06:10:29.953Z,30.35
2023-03-17T06:12:59.015Z,29.13
2023-03-17T06:15:26.728Z,24.90
2023-03-17T06:17:54.049Z,28.20
2023-03-17T06:20:22.108Z,30.33
2023-03-17T06:23:03.171Z,26.37
2023-03-17T06:25:35.579Z,24.93
2023-03-17T06:28:05.673Z,25.67
2023-03-17T06:30:35.425Z,26.60
2023-03-17T06:33:04.215Z,28.02
2023-03-17T06:35:33.410Z,25.80
2023-03-17T06:38:02.289Z,24.88
2023-03-17T06:40:30.599Z,24.25
2023-03-17T06:42:58.663Z,26.40
2023-03-17T06:45:26.772Z,25.05
2023-03-17T06:47:54.103Z,27.27
2023-03-17T06:50:21.902Z,23.35
2023-03-17T06:52:49.432Z,28.60
2023-03-17T06:55:17.659Z,25.25
2023-03-17T06:57:45.023Z,19.05
2023-03-17T07:00:14.329Z,28.83
2023-03-17T07:02:42.300Z,25.50
2023-03-17T07:05:10.245Z,27.65
2023-03-17T07:07:37.786Z,30.42
2023-03-17T07:10:07.060Z,25.52
2023-03-17T07:12:34.448Z,28.02
2023-03-17T07:15:02.148Z,26.17
2023-03-17T07:17:30.289Z,19.95
2023-03-17T07:19:57.841Z,25.10
2023-03-17T07:22:25.274Z,25.95
2023-03-17T07:24:53.339Z,22.33
2023-03-17T07:27:23.091Z,23.05
2023-03-17T07:29:51.364Z,23.08
2023-03-17T07:32:19.348Z,22.40
2023-03-17T07:34:46.879Z,21.48
2023-03-17T07:37:14.461Z,25.63
2023-03-17T07:39:42.082Z,21.13
2023-03-17T07:42:15.506Z,22.98
2023-03-17T07:44:43.394Z,18.50
2023-03-17T07:47:14.805Z,17.65
2023-03-17T07:49:42.664Z,22.02
2023-03-17T07:52:11.317Z,18.33
2023-03-17T07:54:42.657Z,19.08
2023-03-17T07:57:11.021Z,15.50
2023-03-17T07:59:41.732Z,17.42
2023-03-17T08:02:16.670Z,16.40
2023-03-17T08:04:46.033Z,14.68
2023-03-17T08:07:14.769Z,16.02
2023-03-17T08:09:42.788Z,16.33
2023-03-17T08:12:10.908Z,14.70
2023-03-17T08:14:38.479Z,12.85
2023-03-17T08:17:06.522Z,13.18
2023-03-17T08:19:34.181Z,12.95
2023-03-17T08:22:01.616Z,12.02
2023-03-17T08:24:29.530Z,12.75
2023-03-17T08:26:58.119Z,13.02
2023-03-17T08:29:28.503Z,13.73
2023-03-17T08:31:56.093Z,13.38
2023-03-17T08:34:24.409Z,11.32
2023-03-17T08:36:51.872Z,9.55
2023-03-17T08:39:20.634Z,10.18
2023-03-17T08:41:48.004Z,10.23
2023-03-17T08:44:16.713Z,10.68
2023-03-17T08:46:44.116Z,11.02
2023-03-17T08:49:13.003Z,8.13
2023-03-17T08:51:40.959Z,7.90
2023-03-17T08:54:08.829Z,8.85
2023-03-17T08:56:37.174Z,7.07
2023-03-17T08:59:07.190Z,7.13
2023-03-17T09:01:35.033Z,7.38
2023-03-17T09:04:03.319Z,6.03
2023-03-17T09:06:31.707Z,7.63
2023-03-17T09:09:00.477Z,6.93
2023-03-17T09:11:31.601Z,7.18
2023-03-17T09:14:00.240Z,5.68
2023-03-17T09:16:29.017Z,7.53
2023-03-17T09:18:56.721Z,6.03
2023-03-17T09:21:24.040Z,7.65
2023-03-17T09:23:51.634Z,11.23
2023-03-17T09:26:20.306Z,11.18
2023-03-17T09:28:47.948Z,10.63
2023-03-17T09:31:15.721Z,7.57
2023-03-17T09:33:43.960Z,7.30
2023-03-17T09:36:11.455Z,9.07
2023-03-17T09:38:39.717Z,9.02
2023-03-17T09:41:53.828Z,9.18
2023-03-17T09:44:38.630Z,8.30
2023-03-17T09:47:43.649Z,7.75
2023-03-17T09:50:22.747Z,10.45
2023-03-17T09:52:52.404Z,9.43
2023-03-17T09:55:32.973Z,8.63
2023-03-17T09:58:03.605Z,15.93
2023-03-17T10:00:31.892Z,11.32
2023-03-17T10:03:00.304Z,12.20
2023-03-17T10:05:36.867Z,8.85
2023-03-17T10:08:35.839Z,8.45
2023-03-17T10:11:16.951Z,9.95
2023-03-17T10:14:09.536Z,8.95
2023-03-17T10:17:09.405Z,8.55
2023-03-17T10:19:47.648Z,9.35
2023-03-17T10:22:28.038Z,9.15
2023-03-17T10:25:04.090Z,11.30
2023-03-17T10:27:37.623Z,10.07
2023-03-17T10:30:21.275Z,9.38
2023-03-17T10:32:50.514Z,9.52
2023-03-17T10:35:19.027Z,14.45
2023-03-17T10:37:48.385Z,11.13
2023-03-17T10:40:28.868Z,8.25
2023-03-17T10:43:07.813Z,9.63
2023-03-17T10:45:43.301Z,8.43
2023-03-17T10:48:20.323Z,8.00
2023-03-17T10:50:49.535Z,7.28
2023-03-17T10:53:30.602Z,7.30
2023-03-17T10:56:10.474Z,7.85
2023-03-17T10:58:49.198Z,8.02
2023-03-17T11:01:39.777Z,7.63
2023-03-17T11:04:35.834Z,9.32
2023-03-17T11:07:20.455Z,7.97
2023-03-17T11:09:57.376Z,9.10
2023-03-17T11:12:40.132Z,10.82
2023-03-17T11:15:17.861Z,9.00
2023-03-17T11:18:03.451Z,8.80
2023-03-17T11:20:54.852Z,7.90
2023-03-17T11:23:50.152Z,8.50
2023-03-17T11:26:54.742Z,7.45
2023-03-17T11:29:39.919Z,7.45
2023-03-17T11:32:32.545Z,9.57
2023-03-17T11:35:24.012Z,7.68
2023-03-17T11:38:21.322Z,8.48
2023-03-17T11:41:27.287Z,6.00
2023-03-17T11:44:22.183Z,6.75
2023-03-17T11:47:31.937Z,7.88
2023-03-17T11:50:18.661Z,7.38
2023-03-17T11:53:11.643Z,6.70
2023-03-17T11:56:06.770Z,5.68
2023-03-17T11:58:42.608Z,4.72
2023-03-17T12:01:44.266Z,10.68
2023-03-17T12:04:25.957Z,10.30
2023-03-17T12:07:04.559Z,8.40
2023-03-17T12:09:47.408Z,7.35
2023-03-17T12:12:28.163Z,6.13
2023-03-17T12:14:59.661Z,8.85
2023-03-17T12:17:50.952Z,7.65
2023-03-17T12:20:31.632Z,7.05
2023-03-17T12:23:30.168Z,6.65
2023-03-17T12:26:07.560Z,6.32
2023-03-17T12:28:48.625Z,7.35
2023-03-17T12:31:32.008Z,5.90
2023-03-17T12:34:28.859Z,6.80
2023-03-17T12:36:56.359Z,6.57
2023-03-17T12:39:35.146Z,6.13
2023-03-17T12:42:36.574Z,6.55
2023-03-17T12:45:22.502Z,8.25
2023-03-17T12:48:21.495Z,7.30
2023-03-17T12:51:12.543Z,5.68
2023-03-17T12:53:45.114Z,6.50
2023-03-17T12:56:19.326Z,6.70
2023-03-17T12:58:51.829Z,7.25
2023-03-17T13:01:32.946Z,7.00
2023-03-17T13:04:14.015Z,7.15
2023-03-17T13:06:53.679Z,6.88
2023-03-17T13:09:45.283Z,6.90
2023-03-17T13:12:41.668Z,6.18
2023-03-17T13:15:38.209Z,6.40
2023-03-17T13:18:17.801Z,6.78
2023-03-17T13:20:57.510Z,6.43
2023-03-17T13:24:15.881Z,5.70
2023-03-17T13:27:02.140Z,11.57
2023-03-17T13:29:35.582Z,8.02
2023-03-17T13:32:26.818Z,6.28
2023-03-17T13:35:02.276Z,8.05
2023-03-17T13:37:58.925Z,7.68
2023-03-17T13:41:07.105Z,5.97
2023-03-17T13:44:26.773Z,8.75
2023-03-17T13:46:54.858Z,7.13
2023-03-17T13:49:32.563Z,7.35
2023-03-17T13:52:13.654Z,9.35
2023-03-17T13:55:19.027Z,6.43
2023-03-17T13:58:11.159Z,6.07
2023-03-17T14:00:49.483Z,6.68
2023-03-17T14:03:43.918Z,7.35
2023-03-17T14:06:14.425Z,7.50
2023-03-17T14:08:55.083Z,6.32
2023-03-17T14:11:35.569Z,6.68
2023-03-17T14:14:33.041Z,6.65
2023-03-17T14:17:12.424Z,6.97
2023-03-17T14:19:41.894Z,6.10
2023-03-17T14:22:45.916Z,7.38
2023-03-17T14:25:21.656Z,7.90
2023-03-17T14:27:57.018Z,8.70
2023-03-17T14:30:33.156Z,7.10
2023-03-17T14:33:20.571Z,14.25
2023-03-17T14:35:53.937Z,10.63
2023-03-17T14:38:31.304Z,6.47
2023-03-17T14:41:07.995Z,6.28
2023-03-17T14:43:36.905Z,9.57
2023-03-17T14:46:08.183Z,8.15
2023-03-17T14:48:40.352Z,6.68
2023-03-17T14:51:14.501Z,7.45
2023-03-17T14:53:46.573Z,5.90
2023-03-17T14:56:14.698Z,6.90
2023-03-17T14:58:48.612Z,7.10
2023-03-17T15:01:32.540Z,7.88
2023-03-17T15:04:06.319Z,7.80
2023-03-17T15:06:37.424Z,6.90
2023-03-17T15:09:38.566Z,6.72
2023-03-17T15:12:26.712Z,6.35
2023-03-17T15:15:00.842Z,6.68
2023-03-17T15:17:34.857Z,7.45
2023-03-17T15:20:07.615Z,7.10
2023-03-17T15:22:35.369Z,6.95
2023-03-17T15:25:17.439Z,7.22
2023-03-17T15:27:45.842Z,5.65
2023-03-17T15:30:14.857Z,7.85
2023-03-17T15:32:42.790Z,5.88
2023-03-17T15:35:14.592Z,6.57
2023-03-17T15:37:42.828Z,6.45
2023-03-17T15:40:11.367Z,6.50
2023-03-17T15:42:39.870Z,9.93
2023-03-17T15:45:08.625Z,5.60
2023-03-17T15:47:40.035Z,5.13
2023-03-17T15:50:30.331Z,6.97
2023-03-17T15:52:58.121Z,7.68
2023-03-17T15:55:31.194Z,7.03
2023-03-17T15:57:59.814Z,7.65
2023-03-17T16:00:30.356Z,7.65
2023-03-17T16:03:18.833Z,8.00
2023-03-17T16:05:46.645Z,5.78
2023-03-17T16:08:15.760Z,6.70
2023-03-17T16:10:43.401Z,8.05
2023-03-17T16:13:11.926Z,7.07
2023-03-17T16:15:43.435Z,5.53
2023-03-17T16:18:18.347Z,6.20
2023-03-17T16:20:52.435Z,6.00
2023-03-17T16:23:27.202Z,4.80
2023-03-17T16:25:59.273Z,5.55
2023-03-17T16:28:33.045Z,6.40
2023-03-17T16:31:04.033Z,6.45
2023-03-17T16:33:40.403Z,4.78
2023-03-17T16:36:14.646Z,5.82
2023-03-17T16:38:42.745Z,6.53
2023-03-17T16:41:21.714Z,6.50
2023-03-17T16:43:59.599Z,5.07
2023-03-17T16:46:33.360Z,8.38
2023-03-17T16:49:02.282Z,5.72
2023-03-17T16:51:29.650Z,7.13
2023-03-17T16:53:57.288Z,7.07
2023-03-17T16:56:27.581Z,7.93
2023-03-17T16:58:55.300Z,7.47
2023-03-17T17:01:27.370Z,8.18
2023-03-17T17:03:56.112Z,7.93
2023-03-17T17:06:24.452Z,8.18
2023-03-17T17:08:52.985Z,11.45
2023-03-17T17:11:21.514Z,11.52
2023-03-17T17:13:50.167Z,9.10
2023-03-17T17:16:32.165Z,28.70
2023-03-17T17:19:01.334Z,16.15
2023-03-17T17:21:29.119Z,19.38
2023-03-17T17:23:57.093Z,20.88
2023-03-17T17:26:24.447Z,25.02
2023-03-17T17:28:52.209Z,23.52
2023-03-17T17:31:19.688Z,26.10
2023-03-17T17:33:47.346Z,22.67
2023-03-17T17:36:17.608Z,22.63
2023-03-17T17:38:45.452Z,19.98
2023-03-17T17:41:14.334Z,21.58
2023-03-17T17:43:42.141Z,22.73
2023-03-17T17:46:17.234Z,21.50
2023-03-17T17:48:45.393Z,25.63
2023-03-17T17:51:12.870Z,21.27
2023-03-17T17:53:41.005Z,21.67
2023-03-17T17:56:14.228Z,19.40
2023-03-17T17:58:43.134Z,18.58
2023-03-17T18:01:14.026Z,13.57
2023-03-17T18:03:43.086Z,15.10
2023-03-17T18:06:13.185Z,9.82
2023-03-17T18:08:41.557Z,14.52
2023-03-17T18:11:09.209Z,8.27
2023-03-17T18:13:39.088Z,13.82
2023-03-17T18:16:10.158Z,10.55
2023-03-17T18:18:40.736Z,13.23
2023-03-17T18:21:08.977Z,11.90
2023-03-17T18:23:36.727Z,13.32
2023-03-17T18:26:08.881Z,12.55
2023-03-17T18:28:36.829Z,12.60
2023-03-17T18:31:11.905Z,10.88
2023-03-17T18:33:43.564Z,10.93
2023-03-17T18:36:11.780Z,11.52
2023-03-17T18:38:40.525Z,12.10
2023-03-17T18:41:08.534Z,12.77
2023-03-17T18:43:36.220Z,12.65
2023-03-17T18:46:04.364Z,15.10
2023-03-17T18:48:32.012Z,14.00
2023-03-17T18:50:59.355Z,12.95
2023-03-17T18:53:27.151Z,15.25
2023-03-17T18:55:54.407Z,15.05
2023-03-17T18:58:21.984Z,17.13
2023-03-17T19:00:50.372Z,14.60
2023-03-17T19:03:18.842Z,14.55
2023-03-17T19:05:46.287Z,14.98
2023-03-17T19:08:16.131Z,16.00
2023-03-17T19:10:44.824Z,17.23
2023-03-17T19:13:14.302Z,20.90
2023-03-17T19:15:42.166Z,19.67
2023-03-17T19:18:09.861Z,26.13
2023-03-17T19:20:37.957Z,22.92
2023-03-17T19:23:06.023Z,28.60
2023-03-17T19:25:33.606Z,23.60
2023-03-17T19:28:03.287Z,18.77
2023-03-17T19:30:31.432Z,16.15
2023-03-17T19:32:59.299Z,17.17
2023-03-17T19:35:27.262Z,17.27
2023-03-17T19:37:54.907Z,15.93
2023-03-17T19:40:22.565Z,14.30
2023-03-17T19:42:51.171Z,19.98
2023-03-17T19:45:18.690Z,13.45
2023-03-17T19:47:47.133Z,17.33
2023-03-17T19:50:14.874Z,15.25
2023-03-17T19:52:42.610Z,17.85
2023-03-17T19:55:10.829Z,17.50
2023-03-17T19:57:39.061Z,23.05
2023-03-17T20:00:08.972Z,17.77
2023-03-17T20:02:36.848Z,18.55
2023-03-17T20:05:04.764Z,18.55
2023-03-17T20:07:33.097Z,18.33
2023-03-17T20:10:01.478Z,17.42
2023-03-17T20:12:32.964Z,19.17
2023-03-17T20:15:01.575Z,20.92
2023-03-17T20:17:29.277Z,20.67
2023-03-17T20:19:56.658Z,19.27
2023-03-17T20:22:24.743Z,19.58
2023-03-17T20:24:52.248Z,23.50
2023-03-17T20:27:20.597Z,25.73
2023-03-17T20:29:48.689Z,25.38
2023-03-17T20:32:17.402Z,32.75
2023-03-17T20:34:45.171Z,29.05
2023-03-17T20:37:14.296Z,30.80
2023-03-17T20:39:42.426Z,27.05
2023-03-17T20:42:14.577Z,28.35
2023-03-17T20:44:43.039Z,29.15
2023-03-17T20:47:11.496Z,25.92
2023-03-17T20:49:39.471Z,30.25
2023-03-17T20:52:08.571Z,25.80
2023-03-17T20:54:36.097Z,28.02
2023-03-17T20:57:04.878Z,24.42
2023-03-17T20:59:33.807Z,25.70
2023-03-17T21:02:02.501Z,25.35
2023-03-17T21:04:29.933Z,24.15
2023-03-17T21:06:57.595Z,20.40
2023-03-17T21:09:25.014Z,24.17
2023-03-17T21:11:52.619Z,23.50
2023-03-17T21:14:19.951Z,25.02
2023-03-17T21:16:47.940Z,19.55
2023-03-17T21:19:17.249Z,20.50
2023-03-17T21:21:45.800Z,21.42
2023-03-17T21:24:35.058Z,21.75
2023-03-17T21:27:06.589Z,24.10
2023-03-17T21:29:36.233Z,21.85
2023-03-17T21:32:07.275Z,22.75
2023-03-17T21:34:35.616Z,22.95
2023-03-17T21:37:03.380Z,23.38
2023-03-17T21:39:30.886Z,22.55
2023-03-17T21:41:58.488Z,23.83
2023-03-17T21:44:26.573Z,23.85
2023-03-17T21:46:56.586Z,22.40
2023-03-17T21:49:24.914Z,24.05
2023-03-17T21:51:52.331Z,23.38
2023-03-17T21:54:20.646Z,25.20
2023-03-17T21:56:49.562Z,24.65
2023-03-17T21:59:19.121Z,26.95
2023-03-17T22:01:47.379Z,25.83
2023-03-17T22:04:15.635Z,24.73
2023-03-17T22:06:43.461Z,24.63
2023-03-17T22:09:11.139Z,21.02
2023-03-17T22:11:38.528Z,24.15
2023-03-17T22:14:06.608Z,22.65
2023-03-17T22:16:34.136Z,22.52
2023-03-17T22:19:01.969Z,24.17
2023-03-17T22:21:29.237Z,23.75
2023-03-17T22:23:57.115Z,24.73
2023-03-17T22:26:24.391Z,20.27
2023-03-17T22:28:52.126Z,23.08
2023-03-17T22:31:27.313Z,26.15
2023-03-17T22:33:58.326Z,23.88
2023-03-17T22:36:27.188Z,23.50
2023-03-17T22:38:56.242Z,26.80
2023-03-17T22:41:27.235Z,27.35
2023-03-17T22:43:55.246Z,27.08
2023-03-17T22:46:22.830Z,24.83
2023-03-17T22:48:51.877Z,26.92
2023-03-17T22:51:23.570Z,23.55
2023-03-17T22:53:52.194Z,26.77
2023-03-17T22:56:20.448Z,26.45
2023-03-17T22:58:48.992Z,25.63
2023-03-17T23:01:18.398Z,25.30
2023-03-17T23:03:47.193Z,25.33
2023-03-17T23:06:15.155Z,25.50
2023-03-17T23:08:44.401Z,26.77
2023-03-17T23:11:18.674Z,28.20
2023-03-17T23:13:47.802Z,44.95
2023-03-17T23:16:15.993Z,53.05
2023-03-17T23:18:46.867Z,74.65
2023-03-17T23:21:30.606Z,79.50
2023-03-17T23:23:59.625Z,70.18
2023-03-17T23:26:28.786Z,61.00
2023-03-17T23:28:56.675Z,67.50
2023-03-17T23:31:24.887Z,63.50
2023-03-17T23:33:52.804Z,97.10
2023-03-17T23:36:21.478Z,75.97
2023-03-17T23:38:49.987Z,74.45
2023-03-17T23:41:17.751Z,88.57
2023-03-17T23:43:46.880Z,71.28
2023-03-17T23:46:14.813Z,83.38
2023-03-17T23:48:43.111Z,89.05
2023-03-17T23:51:12.568Z,81.75
2023-03-17T23:53:41.807Z,70.00
2023-03-17T23:56:11.569Z,52.63
2023-03-17T23:58:43.410Z,52.63
